Time;durP1;ratioP1;P1;durP2;ratioP2;P2;SDS_P1;SDS_P2;PMS_P1;PMS_P2;Temp;Humidity;BMP_temperature;BMP_pressure;BME280_temperature;BME280_humidity;BME280_pressure;Samples;Min_cycle;Max_cycle;Signal;HPM_P1;HPM_P2
2021/12/25 00:01:46;;;;;;;18.33;9.50;;;10.10;99.90;;;;;;5003685;28;20457;-54
2021/12/25 00:04:12;;;;;;;17.52;10.23;;;10.10;99.90;;;;;;4991199;28;20533;-54
2021/12/25 00:06:38;;;;;;;18.13;10.50;;;10.10;99.90;;;;;;4991798;28;20784;-54
2021/12/25 00:09:05;;;;;;;18.37;11.10;;;10.20;99.90;;;;;;4991114;28;20382;-54
2021/12/25 00:11:32;;;;;;;16.98;10.55;;;10.20;99.90;;;;;;5008183;28;20384;-55
2021/12/25 00:13:58;;;;;;;18.63;10.25;;;10.10;99.90;;;;;;5009927;28;20405;-54
2021/12/25 00:16:23;;;;;;;17.42;9.68;;;10.20;99.90;;;;;;5010876;28;20485;-54
2021/12/25 00:18:49;;;;;;;15.57;8.97;;;10.10;99.90;;;;;;5007711;28;20413;-54
2021/12/25 00:21:15;;;;;;;18.20;10.80;;;10.10;99.90;;;;;;5010373;28;20380;-54
2021/12/25 00:23:40;;;;;;;20.87;10.87;;;10.10;99.90;;;;;;5006038;28;20405;-54
2021/12/25 00:26:22;;;;;;;16.15;10.10;;;10.10;99.90;;;;;;5009965;28;20446;-54
2021/12/25 00:28:57;;;;;;;18.00;10.70;;;10.10;99.90;;;;;;5005188;28;20425;-53
2021/12/25 00:31:42;;;;;;;19.90;11.27;;;10.10;99.90;;;;;;5010604;28;20409;-54
2021/12/25 00:34:10;;;;;;;18.15;11.00;;;10.00;99.90;;;;;;5006759;28;20440;-54
2021/12/25 00:36:35;;;;;;;18.80;10.55;;;9.90;99.90;;;;;;5010301;28;20385;-54
2021/12/25 00:39:01;;;;;;;23.07;11.97;;;9.90;99.90;;;;;;5003007;28;20740;-54
2021/12/25 00:41:26;;;;;;;20.50;11.20;;;9.70;99.90;;;;;;5007054;28;20385;-54
2021/12/25 00:43:52;;;;;;;15.90;9.50;;;9.80;99.90;;;;;;5007782;28;20393;-54
2021/12/25 00:46:18;;;;;;;17.85;10.43;;;9.80;99.90;;;;;;5006892;28;20389;-54
2021/12/25 00:48:44;;;;;;;15.77;9.80;;;9.70;99.90;;;;;;5010324;28;20389;-54
2021/12/25 00:51:09;;;;;;;18.80;10.60;;;9.60;99.90;;;;;;5010083;28;21049;-54
2021/12/25 00:53:35;;;;;;;20.13;11.93;;;9.50;99.90;;;;;;5010642;28;20399;-54
2021/12/25 00:56:01;;;;;;;18.33;11.02;;;9.60;99.90;;;;;;5009075;28;20860;-54
2021/12/25 00:58:26;;;;;;;21.20;12.50;;;9.50;99.90;;;;;;5002458;28;20446;-54
2021/12/25 01:00:52;;;;;;;19.95;11.85;;;9.40;99.90;;;;;;4990829;28;20401;-54
2021/12/25 01:03:18;;;;;;;18.67;11.80;;;9.60;99.90;;;;;;4990799;28;20394;-54
2021/12/25 01:05:44;;;;;;;18.73;11.38;;;9.60;99.90;;;;;;4990962;28;20461;-54
2021/12/25 01:08:10;;;;;;;22.23;12.07;;;9.60;99.90;;;;;;4990219;28;20435;-54
2021/12/25 01:10:36;;;;;;;24.02;12.30;;;9.50;99.90;;;;;;4990880;28;20378;-54
2021/12/25 01:13:09;;;;;;;23.17;11.93;;;9.40;99.90;;;;;;4989937;28;20414;-54
2021/12/25 01:31:42;;;;;;;21.30;12.07;;;9.20;99.90;;;;;;4990427;28;20386;-54
2021/12/25 01:39:29;;;;;;;18.70;11.27;;;9.10;99.90;;;;;;4990409;28;20385;-54
2021/12/25 01:47:52;;;;;;;23.15;11.90;;;9.20;99.90;;;;;;4989936;28;20990;-54
2021/12/25 01:50:21;;;;;;;21.05;11.93;;;9.30;99.90;;;;;;4989838;28;20524;-54
2021/12/25 01:52:47;;;;;;;20.75;12.10;;;9.40;99.90;;;;;;4990230;28;20755;-54
2021/12/25 01:55:25;;;;;;;21.23;12.43;;;9.40;99.90;;;;;;4989271;28;20951;-54
2021/12/25 01:57:53;;;;;;;21.93;12.20;;;9.30;99.90;;;;;;4989949;28;20760;-54
2021/12/25 02:00:43;;;;;;;23.95;12.63;;;9.20;99.90;;;;;;4990198;28;20418;-54
2021/12/25 02:03:12;;;;;;;25.15;13.90;;;9.20;99.90;;;;;;4989355;28;20394;-54
2021/12/25 02:05:39;;;;;;;26.00;14.27;;;9.30;99.90;;;;;;4990092;28;20378;-54
2021/12/25 02:08:05;;;;;;;19.35;11.00;;;9.40;99.90;;;;;;4989720;28;20386;-54
2021/12/25 02:10:31;;;;;;;21.80;11.98;;;9.20;99.90;;;;;;4989764;28;20402;-54
2021/12/25 02:12:57;;;;;;;23.00;13.45;;;9.00;99.90;;;;;;4989118;28;20419;-54
2021/12/25 02:15:26;;;;;;;23.80;13.25;;;9.10;99.90;;;;;;4990062;28;20394;-53
2021/12/25 02:18:14;;;;;;;21.25;12.43;;;9.10;99.90;;;;;;4989733;28;20383;-54
2021/12/25 02:20:54;;;;;;;22.95;11.95;;;9.10;99.90;;;;;;4989934;28;20375;-54
2021/12/25 02:23:22;;;;;;;26.42;14.50;;;9.10;99.90;;;;;;4989845;28;20474;-54
2021/12/25 02:25:54;;;;;;;26.02;12.60;;;8.90;99.90;;;;;;4989882;28;20369;-54
2021/12/25 02:28:21;;;;;;;28.02;14.70;;;8.90;99.90;;;;;;4989513;28;20495;-54
2021/12/25 02:30:49;;;;;;;27.77;14.90;;;9.20;99.90;;;;;;4989908;28;20468;-54
2021/12/25 02:33:16;;;;;;;26.25;14.45;;;9.20;99.90;;;;;;4989052;28;20421;-54
2021/12/25 02:35:42;;;;;;;27.55;14.90;;;9.10;99.90;;;;;;4989648;28;20386;-54
2021/12/25 02:38:08;;;;;;;27.40;15.52;;;9.00;99.90;;;;;;4989269;28;20386;-54
2021/12/25 02:40:34;;;;;;;27.30;14.75;;;9.00;99.90;;;;;;4989429;28;20879;-54
2021/12/25 02:43:00;;;;;;;32.10;15.70;;;9.10;99.90;;;;;;4989173;28;20476;-54
2021/12/25 02:45:25;;;;;;;27.10;16.00;;;9.00;99.90;;;;;;4989597;28;20486;-54
2021/12/25 02:47:55;;;;;;;28.60;14.57;;;9.00;99.90;;;;;;4989689;28;20386;-54
2021/12/25 02:50:30;;;;;;;24.52;14.38;;;8.90;99.90;;;;;;4989615;28;20395;-54
2021/12/25 02:52:57;;;;;;;28.90;15.80;;;9.00;99.90;;;;;;4989009;28;20419;-54
2021/12/25 02:55:24;;;;;;;27.05;14.85;;;9.00;99.90;;;;;;4989399;28;20476;-54
2021/12/25 02:57:52;;;;;;;30.70;16.40;;;8.80;99.90;;;;;;4991755;28;20409;-54
2021/12/25 03:00:21;;;;;;;28.73;14.98;;;8.80;99.90;;;;;;4992298;28;20395;-54
2021/12/25 03:02:48;;;;;;;26.88;15.15;;;8.90;99.90;;;;;;4991934;28;20406;-55
2021/12/25 03:05:13;;;;;;;28.30;15.23;;;8.80;99.90;;;;;;4992502;28;20385;-55
2021/12/25 03:07:39;;;;;;;24.73;14.32;;;8.90;99.90;;;;;;4993102;28;20461;-55
2021/12/25 03:10:06;;;;;;;28.98;15.32;;;8.90;99.90;;;;;;4992374;28;20418;-55
2021/12/25 03:12:45;;;;;;;30.33;15.68;;;9.00;99.90;;;;;;5007567;28;20764;-56
2021/12/25 03:15:15;;;;;;;31.00;15.80;;;9.10;99.90;;;;;;4992225;28;20383;-55
2021/12/25 03:17:41;;;;;;;29.20;16.27;;;9.30;99.90;;;;;;4992386;28;20390;-55
2021/12/25 03:20:09;;;;;;;27.20;15.80;;;9.30;99.90;;;;;;4991968;28;20521;-55
2021/12/25 03:22:37;;;;;;;24.73;14.18;;;9.30;99.90;;;;;;4992789;28;20391;-55
2021/12/25 03:25:05;;;;;;;29.70;14.57;;;9.30;99.90;;;;;;4991844;28;20903;-55
2021/12/25 03:27:31;;;;;;;29.65;14.35;;;9.20;99.90;;;;;;4992689;28;20466;-55
2021/12/25 03:29:57;;;;;;;40.47;16.35;;;9.20;99.90;;;;;;4991659;28;20513;-55
2021/12/25 03:32:22;;;;;;;32.63;17.30;;;9.30;99.90;;;;;;4992186;28;20382;-55
2021/12/25 03:34:48;;;;;;;32.08;16.98;;;9.20;99.90;;;;;;4992310;28;20903;-55
2021/12/25 03:37:13;;;;;;;29.37;17.10;;;9.20;99.90;;;;;;4991718;28;20386;-55
2021/12/25 03:39:39;;;;;;;33.07;17.37;;;9.40;99.90;;;;;;4992394;28;20391;-55
2021/12/25 03:42:05;;;;;;;34.03;18.48;;;9.20;99.90;;;;;;4991705;28;20795;-55
2021/12/25 03:44:32;;;;;;;40.73;17.33;;;9.20;99.90;;;;;;5007261;28;20444;-55
2021/12/25 03:47:03;;;;;;;32.05;16.95;;;9.20;99.90;;;;;;4991505;28;20402;-55
2021/12/25 03:49:45;;;;;;;51.43;18.07;;;9.20;99.90;;;;;;4992310;28;20378;-55
2021/12/25 03:57:49;;;;;;;37.85;15.50;;;9.40;99.90;;;;;;4992197;28;20934;-56
2021/12/25 04:00:16;;;;;;;26.10;13.25;;;9.40;99.90;;;;;;4991192;28;20538;-55
2021/12/25 04:02:54;;;;;;;53.75;15.00;;;9.20;99.90;;;;;;4991829;28;20817;-55
2021/12/25 04:05:25;;;;;;;78.05;16.85;;;9.10;99.90;;;;;;4991265;28;20602;-55
2021/12/25 04:10:16;;;;;;;84.57;19.83;;;9.00;99.90;;;;;;4990704;28;20554;-55
2021/12/25 04:12:42;;;;;;;68.40;17.25;;;8.90;99.90;;;;;;4990139;28;20422;-55
2021/12/25 04:15:08;;;;;;;25.60;13.30;;;8.90;99.90;;;;;;4991270;28;20840;-55
2021/12/25 04:17:33;;;;;;;20.63;12.55;;;8.90;99.90;;;;;;4991792;28;20401;-55
2021/12/25 04:20:03;;;;;;;23.63;13.60;;;9.00;99.90;;;;;;4991290;28;20444;-54
2021/12/25 04:22:36;;;;;;;26.63;15.85;;;9.10;99.90;;;;;;4991737;28;20385;-54
2021/12/25 04:25:02;;;;;;;26.20;13.60;;;9.40;99.90;;;;;;4990896;28;20402;-54
2021/12/25 04:27:28;;;;;;;47.07;15.50;;;9.30;99.90;;;;;;4991583;28;20382;-54
2021/12/25 04:30:00;;;;;;;83.20;19.05;;;9.20;99.90;;;;;;4998422;28;20767;-54
2021/12/25 04:33:09;;;;;;;75.00;15.05;;;9.20;99.90;;;;;;5002019;28;20474;-54
2021/12/25 05:02:49;;;;;;;16.15;9.20;;;8.70;99.90;;;;;;5010344;28;20458;-54
2021/12/25 05:05:18;;;;;;;16.43;9.50;;;8.70;99.90;;;;;;5009293;28;20389;-55
2021/12/25 05:07:44;;;;;;;16.23;9.73;;;8.60;99.90;;;;;;5009951;28;20742;-55
2021/12/25 05:10:09;;;;;;;16.17;9.40;;;8.50;99.90;;;;;;5009579;28;20380;-55
2021/12/25 05:12:35;;;;;;;15.63;9.40;;;8.60;99.90;;;;;;5010467;28;20747;-54
2021/12/25 05:15:01;;;;;;;16.25;9.43;;;8.60;99.90;;;;;;5009282;28;20383;-54
2021/12/25 05:17:27;;;;;;;18.65;10.05;;;8.60;99.90;;;;;;5010011;28;20388;-54
2021/12/25 05:19:52;;;;;;;19.07;11.10;;;8.60;99.90;;;;;;5010061;28;20546;-55
2021/12/25 05:22:18;;;;;;;17.27;10.10;;;8.60;99.90;;;;;;5009436;28;21181;-54
2021/12/25 05:24:44;;;;;;;15.70;9.73;;;8.70;99.90;;;;;;5008515;28;20418;-55
2021/12/25 05:27:12;;;;;;;17.55;10.05;;;8.80;99.90;;;;;;5009329;28;20882;-54
2021/12/25 05:29:40;;;;;;;20.58;11.60;;;8.80;99.90;;;;;;5009688;28;20444;-55
2021/12/25 05:32:06;;;;;;;25.90;13.20;;;8.80;99.90;;;;;;5009200;28;20388;-54
2021/12/25 05:34:32;;;;;;;43.67;14.75;;;8.90;99.90;;;;;;5010110;28;20821;-55
2021/12/25 05:36:58;;;;;;;37.30;13.27;;;8.80;99.90;;;;;;5003044;28;20489;-54
2021/12/25 05:39:24;;;;;;;49.60;13.30;;;8.80;99.90;;;;;;4990098;28;20382;-54
2021/12/25 05:41:50;;;;;;;52.00;12.57;;;8.70;99.90;;;;;;5009455;28;20396;-54
2021/12/25 05:44:16;;;;;;;64.47;14.65;;;8.70;99.90;;;;;;5009025;28;20479;-55
2021/12/25 05:46:42;;;;;;;40.47;13.32;;;8.80;99.90;;;;;;5008509;28;20504;-54
2021/12/25 05:49:07;;;;;;;24.70;12.17;;;8.80;99.90;;;;;;5009068;28;20377;-54
2021/12/25 05:51:33;;;;;;;26.07;11.20;;;8.80;99.90;;;;;;5009634;28;20423;-54
2021/12/25 05:53:59;;;;;;;18.73;10.90;;;8.90;99.90;;;;;;5009350;28;20439;-55
2021/12/25 05:56:24;;;;;;;23.67;10.93;;;8.90;99.90;;;;;;5009630;28;20391;-55
2021/12/25 05:58:50;;;;;;;22.73;10.40;;;9.00;99.90;;;;;;5009456;28;20397;-55
2021/12/25 06:01:16;;;;;;;17.37;10.40;;;8.90;99.90;;;;;;5009071;28;20381;-54
2021/12/25 06:03:41;;;;;;;15.38;9.75;;;8.80;99.90;;;;;;4997903;28;20465;-54
2021/12/25 06:06:07;;;;;;;13.27;8.50;;;8.80;99.90;;;;;;4997925;28;20389;-55
2021/12/25 06:08:33;;;;;;;14.88;8.85;;;8.80;99.90;;;;;;4991060;28;20378;-56
2021/12/25 06:11:02;;;;;;;12.40;7.20;;;8.90;99.90;;;;;;4989105;28;20375;-55
2021/12/25 06:13:28;;;;;;;13.70;7.60;;;9.00;99.90;;;;;;4989744;28;20417;-55
2021/12/25 06:15:55;;;;;;;14.43;8.15;;;9.20;99.90;;;;;;4989979;28;20382;-54
2021/12/25 06:18:21;;;;;;;13.40;8.00;;;9.10;99.90;;;;;;4989384;28;20391;-54
2021/12/25 06:20:47;;;;;;;13.70;7.50;;;9.10;99.90;;;;;;4989681;28;20383;-54
2021/12/25 06:23:13;;;;;;;14.20;8.00;;;9.10;99.90;;;;;;5008320;28;20858;-55
2021/12/25 06:25:38;;;;;;;12.15;6.75;;;9.10;99.90;;;;;;5008942;28;20392;-54
2021/12/25 06:28:05;;;;;;;8.60;4.83;;;9.10;99.90;;;;;;5007371;28;20413;-55
2021/12/25 06:30:33;;;;;;;9.48;4.88;;;9.00;99.90;;;;;;5005855;28;21390;-54
2021/12/25 06:32:58;;;;;;;8.40;3.95;;;8.90;99.90;;;;;;5010855;28;20869;-55
2021/12/25 06:35:24;;;;;;;9.07;4.20;;;8.90;99.90;;;;;;5012413;28;20435;-54
2021/12/25 06:37:50;;;;;;;8.15;3.90;;;9.00;99.90;;;;;;5006801;28;20405;-55
2021/12/25 06:40:18;;;;;;;8.43;3.75;;;8.90;99.90;;;;;;5011823;28;21157;-55
2021/12/25 06:42:47;;;;;;;6.30;3.40;;;9.00;99.90;;;;;;5012411;28;20511;-55
2021/12/25 06:45:13;;;;;;;6.63;3.33;;;9.00;99.90;;;;;;5012193;28;20417;-55
2021/12/25 06:47:39;;;;;;;8.07;3.80;;;9.00;99.90;;;;;;5013030;28;20498;-55
2021/12/25 06:50:07;;;;;;;7.97;4.20;;;9.10;99.90;;;;;;5011739;28;20388;-55
2021/12/25 06:52:34;;;;;;;7.30;3.70;;;9.10;99.90;;;;;;5012258;28;20420;-55
2021/12/25 06:55:00;;;;;;;7.80;4.00;;;9.10;99.90;;;;;;5012476;28;20380;-55
2021/12/25 06:57:28;;;;;;;10.63;3.90;;;9.00;99.90;;;;;;5012507;28;20487;-55
2021/12/25 06:59:54;;;;;;;8.80;4.43;;;8.90;99.90;;;;;;5012999;28;20480;-55
2021/12/25 07:02:19;;;;;;;7.45;3.75;;;8.80;99.90;;;;;;5011963;28;20844;-55
2021/12/25 07:04:45;;;;;;;9.47;4.50;;;8.80;99.90;;;;;;5006562;28;20403;-55
2021/12/25 07:07:11;;;;;;;9.52;4.90;;;8.90;99.90;;;;;;5010662;28;20405;-54
2021/12/25 07:09:36;;;;;;;10.03;5.03;;;8.90;99.90;;;;;;5012381;28;20428;-54
2021/12/25 07:12:03;;;;;;;11.85;4.80;;;8.80;99.90;;;;;;5011314;28;20388;-54
2021/12/25 07:14:29;;;;;;;12.57;5.13;;;8.80;99.90;;;;;;5012231;28;20504;-54
2021/12/25 07:16:54;;;;;;;11.90;5.20;;;8.80;99.90;;;;;;5012244;28;20483;-54
2021/12/25 07:19:20;;;;;;;10.90;5.50;;;8.80;99.90;;;;;;5011548;28;20385;-54
2021/12/25 07:21:46;;;;;;;9.70;5.00;;;8.70;99.90;;;;;;5012062;28;20413;-54
2021/12/25 07:24:13;;;;;;;7.90;4.43;;;8.70;99.90;;;;;;5010910;28;20814;-54
2021/12/25 07:26:39;;;;;;;8.10;4.60;;;8.80;99.90;;;;;;5008569;28;20400;-54
2021/12/25 07:29:05;;;;;;;10.40;4.30;;;8.70;99.90;;;;;;5010516;28;20444;-55
2021/12/25 07:31:31;;;;;;;8.65;4.70;;;8.80;99.90;;;;;;5012088;28;20388;-54
2021/12/25 07:33:56;;;;;;;8.93;4.65;;;8.80;99.90;;;;;;5010832;28;20421;-54
2021/12/25 07:36:23;;;;;;;9.90;4.60;;;8.90;99.90;;;;;;5009640;28;20400;-54
2021/12/25 07:38:49;;;;;;;11.38;4.40;;;9.00;99.90;;;;;;5010387;28;20401;-54
2021/12/25 07:41:15;;;;;;;9.07;4.15;;;9.10;99.90;;;;;;5010797;28;20387;-54
2021/12/25 07:43:41;;;;;;;9.97;4.13;;;9.10;99.90;;;;;;5010728;28;20393;-54
2021/12/25 07:46:06;;;;;;;8.23;3.90;;;9.10;99.90;;;;;;5010830;28;20377;-54
2021/12/25 07:48:33;;;;;;;8.07;3.57;;;9.20;99.90;;;;;;5011713;28;20831;-54
2021/12/25 07:51:02;;;;;;;7.68;3.88;;;9.20;99.90;;;;;;5011260;28;20377;-54
2021/12/25 07:53:28;;;;;;;7.80;4.50;;;9.30;99.90;;;;;;5011357;28;20409;-54
2021/12/25 07:55:54;;;;;;;8.85;4.10;;;9.30;99.90;;;;;;5011556;28;20429;-54
2021/12/25 07:58:20;;;;;;;8.07;4.10;;;9.20;99.90;;;;;;5009499;28;20425;-55
2021/12/25 08:00:46;;;;;;;8.75;4.00;;;9.20;99.90;;;;;;5011768;28;20449;-54
2021/12/25 08:03:12;;;;;;;7.87;4.63;;;9.30;99.90;;;;;;5010805;28;20400;-55
2021/12/25 08:05:38;;;;;;;8.23;4.30;;;9.30;99.90;;;;;;5009853;28;20385;-55
2021/12/25 08:08:04;;;;;;;9.77;4.40;;;9.30;99.90;;;;;;5007279;28;20400;-54
2021/12/25 08:10:31;;;;;;;10.82;4.70;;;9.30;99.90;;;;;;4995313;28;20880;-54
2021/12/25 08:12:58;;;;;;;9.85;4.30;;;9.40;99.90;;;;;;5002911;28;20470;-54
2021/12/25 08:15:29;;;;;;;8.77;4.60;;;9.50;99.90;;;;;;4995162;28;20463;-54
2021/12/25 08:17:56;;;;;;;8.83;4.60;;;9.30;99.90;;;;;;4997879;28;20463;-54
2021/12/25 08:20:22;;;;;;;9.73;4.50;;;9.40;99.90;;;;;;5004057;28;20642;-54
2021/12/25 08:22:48;;;;;;;7.43;4.00;;;9.40;99.90;;;;;;5008146;28;20388;-54
2021/12/25 08:25:15;;;;;;;8.93;4.40;;;9.40;99.90;;;;;;5009416;28;20938;-54
2021/12/25 08:27:42;;;;;;;7.60;4.27;;;9.30;99.90;;;;;;4991237;28;20438;-54
2021/12/25 08:30:11;;;;;;;11.37;4.50;;;9.30;99.90;;;;;;5003521;28;20417;-54
2021/12/25 08:32:39;;;;;;;7.90;4.00;;;9.30;99.90;;;;;;5010120;28;20440;-54
2021/12/25 08:35:05;;;;;;;8.90;4.38;;;9.30;99.90;;;;;;4994793;28;20412;-55
2021/12/25 08:37:31;;;;;;;9.68;4.53;;;9.30;99.90;;;;;;5010219;28;20389;-54
2021/12/25 08:39:57;;;;;;;8.68;4.38;;;9.30;99.90;;;;;;5003967;28;20431;-55
2021/12/25 08:42:23;;;;;;;8.20;4.05;;;9.30;99.90;;;;;;4999959;28;20866;-54
2021/12/25 08:47:29;;;;;;;8.57;4.88;;;9.20;99.90;;;;;;4997192;28;20414;-52
2021/12/25 08:49:56;;;;;;;12.18;5.80;;;9.10;99.90;;;;;;5001833;28;20389;-52
2021/12/25 08:52:23;;;;;;;9.48;4.95;;;9.10;99.90;;;;;;5002552;28;20531;-52
2021/12/25 08:54:50;;;;;;;8.52;4.78;;;9.20;99.90;;;;;;5007373;28;20401;-54
2021/12/25 08:57:19;;;;;;;6.80;3.67;;;9.30;99.90;;;;;;4996669;28;20437;-55
2021/12/25 08:59:45;;;;;;;7.88;3.50;;;9.40;99.90;;;;;;4990290;28;20421;-54
2021/12/25 09:02:16;;;;;;;7.40;3.65;;;9.50;99.90;;;;;;5006370;28;20412;-55
2021/12/25 09:04:44;;;;;;;7.05;3.33;;;9.60;99.90;;;;;;4991099;28;20784;-54
2021/12/25 09:07:10;;;;;;;7.43;3.88;;;9.50;99.90;;;;;;4995191;28;20429;-54
2021/12/25 09:09:37;;;;;;;6.90;3.20;;;9.60;99.90;;;;;;4990216;28;20583;-54
2021/12/25 09:12:04;;;;;;;8.75;3.47;;;9.70;99.90;;;;;;4989513;28;20402;-54
2021/12/25 09:14:30;;;;;;;7.05;3.20;;;9.70;99.90;;;;;;4997427;28;20510;-54
2021/12/25 09:16:56;;;;;;;7.43;3.60;;;9.70;99.90;;;;;;4997309;28;20423;-54
2021/12/25 09:19:22;;;;;;;8.60;3.50;;;9.80;99.90;;;;;;4994727;28;20424;-54
2021/12/25 09:21:47;;;;;;;7.93;3.33;;;9.80;99.90;;;;;;5009872;28;20475;-55
2021/12/25 09:24:13;;;;;;;6.90;3.40;;;9.80;99.90;;;;;;4994329;28;20914;-55
2021/12/25 09:26:39;;;;;;;7.73;3.30;;;9.90;99.90;;;;;;4994966;28;20517;-54
2021/12/25 09:29:05;;;;;;;7.38;3.63;;;9.90;99.90;;;;;;4997211;28;20424;-54
2021/12/25 09:31:31;;;;;;;6.80;3.33;;;9.90;99.90;;;;;;5007901;28;20425;-55
2021/12/25 09:33:56;;;;;;;7.78;3.33;;;9.90;99.90;;;;;;4996599;28;20417;-54
2021/12/25 09:36:22;;;;;;;11.18;3.67;;;9.90;99.90;;;;;;4999612;28;20441;-54
2021/12/25 09:38:49;;;;;;;7.72;3.50;;;10.10;99.90;;;;;;4989098;28;20960;-54
2021/12/25 09:41:16;;;;;;;7.97;3.70;;;10.20;99.90;;;;;;4988647;28;20879;-56
2021/12/25 09:43:44;;;;;;;9.60;3.55;;;10.30;99.90;;;;;;4993800;28;20398;-55
2021/12/25 09:46:10;;;;;;;8.65;3.67;;;10.30;99.90;;;;;;4993169;28;20399;-54
2021/12/25 09:48:36;;;;;;;8.90;3.13;;;10.40;99.90;;;;;;5002491;28;20964;-54
2021/12/25 09:51:03;;;;;;;7.57;3.67;;;10.40;99.90;;;;;;5008374;28;20889;-54
2021/12/25 09:53:28;;;;;;;7.80;3.95;;;10.30;99.90;;;;;;5005806;28;20417;-54
2021/12/25 09:55:55;;;;;;;8.90;4.18;;;10.30;99.90;;;;;;5008872;28;20443;-54
2021/12/25 09:58:22;;;;;;;9.40;4.38;;;10.30;99.90;;;;;;5008272;28;20420;-54
2021/12/25 10:00:51;;;;;;;7.20;3.83;;;10.30;99.90;;;;;;5004285;28;20409;-54
2021/12/25 10:03:20;;;;;;;9.13;4.15;;;10.20;99.90;;;;;;5005667;28;20408;-54
2021/12/25 10:05:48;;;;;;;12.95;3.72;;;10.20;99.90;;;;;;5008914;28;20377;-54
2021/12/25 10:08:20;;;;;;;8.57;4.07;;;10.30;99.90;;;;;;5009559;28;20404;-55
2021/12/25 10:10:49;;;;;;;7.60;4.18;;;10.30;99.90;;;;;;5012694;28;20483;-54
2021/12/25 10:13:37;;;;;;;7.15;3.20;;;10.30;99.90;;;;;;5008087;28;20428;-54
2021/12/25 10:16:25;;;;;;;6.40;3.15;;;10.00;99.90;;;;;;5010381;28;20414;-55
2021/12/25 10:18:54;;;;;;;6.60;2.67;;;9.90;99.90;;;;;;5007547;28;20898;-54
2021/12/25 10:21:29;;;;;;;5.70;2.60;;;9.70;99.90;;;;;;5009758;28;20464;-54
2021/12/25 10:24:18;;;;;;;7.77;2.67;;;9.70;99.90;;;;;;5005038;28;20410;-55
2021/12/25 10:26:47;;;;;;;6.00;2.20;;;9.60;99.90;;;;;;5008670;28;20421;-55
2021/12/25 10:29:29;;;;;;;6.30;2.40;;;9.60;99.90;;;;;;5009606;28;20778;-55
2021/12/25 10:31:58;;;;;;;6.25;2.35;;;9.60;99.90;;;;;;4999974;28;20551;-56
2021/12/25 10:34:29;;;;;;;5.37;2.27;;;9.70;99.90;;;;;;5001779;28;20440;-56
2021/12/25 10:37:10;;;;;;;5.03;2.10;;;9.90;99.90;;;;;;5003196;28;21422;-55
2021/12/25 10:39:36;;;;;;;6.70;2.85;;;9.90;99.90;;;;;;5006339;28;20447;-55
2021/12/25 10:42:12;;;;;;;7.45;2.05;;;9.90;99.90;;;;;;4997846;28;20469;-55
2021/12/25 10:44:44;;;;;;;5.18;1.80;;;9.90;99.90;;;;;;5002665;28;20487;-56
2021/12/25 10:47:25;;;;;;;4.65;1.77;;;9.90;99.90;;;;;;5001041;28;20424;-56
2021/12/25 10:49:54;;;;;;;5.97;2.00;;;9.90;99.90;;;;;;5003522;28;20529;-55
2021/12/25 10:52:24;;;;;;;4.45;1.55;;;9.90;99.90;;;;;;5005439;28;20410;-55
2021/12/25 10:55:05;;;;;;;4.88;1.83;;;9.90;99.90;;;;;;5001484;28;20907;-55
2021/12/25 10:57:50;;;;;;;4.70;2.08;;;9.90;99.90;;;;;;5004489;28;20396;-55
2021/12/25 11:00:21;;;;;;;4.90;1.98;;;9.90;99.90;;;;;;4998583;28;20519;-56
2021/12/25 11:02:55;;;;;;;5.03;1.95;;;10.00;99.90;;;;;;4998760;28;20416;-56
2021/12/25 11:05:22;;;;;;;6.30;2.30;;;10.20;99.90;;;;;;4994086;28;20435;-56
2021/12/25 11:08:01;;;;;;;5.00;2.42;;;10.30;99.90;;;;;;4999287;28;20422;-56
2021/12/25 11:10:26;;;;;;;5.53;2.50;;;10.30;99.90;;;;;;5001559;28;20475;-55
2021/12/25 11:12:52;;;;;;;6.67;2.90;;;10.20;99.90;;;;;;5002071;28;20806;-55
2021/12/25 11:15:22;;;;;;;6.32;2.60;;;10.20;99.90;;;;;;5004737;28;20450;-56
2021/12/25 11:17:52;;;;;;;7.95;3.38;;;10.30;99.90;;;;;;5004891;28;20423;-56
2021/12/25 11:20:37;;;;;;;7.28;3.08;;;10.30;99.90;;;;;;5003732;28;20405;-56
2021/12/25 11:23:05;;;;;;;7.93;2.85;;;10.30;99.90;;;;;;5002804;28;20439;-56
2021/12/25 11:25:33;;;;;;;6.28;2.80;;;10.30;99.90;;;;;;5005094;28;20416;-55
2021/12/25 11:28:00;;;;;;;7.22;3.53;;;10.40;99.90;;;;;;5004911;28;20400;-55
2021/12/25 11:30:30;;;;;;;7.07;3.25;;;10.50;99.90;;;;;;5002240;28;22209;-55
2021/12/25 11:32:57;;;;;;;7.53;3.50;;;10.50;99.90;;;;;;5001565;28;20436;-56
2021/12/25 11:35:23;;;;;;;7.97;3.40;;;10.60;99.90;;;;;;5000369;28;20538;-56
2021/12/25 11:37:50;;;;;;;7.32;3.90;;;10.60;99.90;;;;;;5002374;28;21218;-55
2021/12/25 11:40:18;;;;;;;7.00;3.20;;;10.70;99.90;;;;;;4999832;28;20471;-55
2021/12/25 11:42:52;;;;;;;7.50;3.42;;;10.90;99.90;;;;;;4999330;28;20752;-55
2021/12/25 11:45:22;;;;;;;6.60;2.83;;;10.90;99.90;;;;;;4998803;28;20411;-55
2021/12/25 11:47:53;;;;;;;5.70;3.00;;;11.00;99.90;;;;;;5002567;28;20866;-55
2021/12/25 11:50:24;;;;;;;6.80;3.10;;;11.10;99.90;;;;;;5004726;28;20403;-56
2021/12/25 11:53:20;;;;;;;6.50;2.93;;;11.10;99.90;;;;;;5005308;28;20412;-55
2021/12/25 11:56:26;;;;;;;5.70;2.80;;;11.00;99.90;;;;;;5004736;28;20422;-56
2021/12/25 11:58:53;;;;;;;6.53;2.80;;;10.90;99.90;;;;;;5002333;28;20565;-55
2021/12/25 12:01:30;;;;;;;6.65;2.80;;;10.30;99.90;;;;;;5002174;28;20500;-56
2021/12/25 12:04:09;;;;;;;7.95;4.05;;;10.90;99.90;;;;;;5006870;28;20400;-55
2021/12/25 12:06:47;;;;;;;11.03;6.13;;;10.80;99.90;;;;;;5000652;28;20535;-56
2021/12/25 12:09:17;;;;;;;12.67;6.00;;;10.70;99.90;;;;;;5003797;28;20413;-56
2021/12/25 12:11:47;;;;;;;10.13;4.70;;;10.70;99.90;;;;;;4999615;28;20426;-56
2021/12/25 12:14:15;;;;;;;9.20;5.00;;;10.70;99.90;;;;;;4997048;28;20470;-57
2021/12/25 12:16:52;;;;;;;25.35;12.30;;;10.80;99.90;;;;;;5001659;28;20925;-56
2021/12/25 12:19:37;;;;;;;15.65;7.00;;;10.80;99.90;;;;;;5002636;28;21003;-55
2021/12/25 12:22:18;;;;;;;8.13;4.45;;;10.90;99.90;;;;;;5002046;28;20406;-55
2021/12/25 12:25:42;;;;;;;10.93;5.57;;;10.90;99.90;;;;;;5007260;28;20404;-55
2021/12/25 12:27:50;;;;;;;12.50;5.93;;;11.00;99.90;;;;;;4997301;28;20439;-55
2021/12/25 12:30:31;;;;;;;8.98;5.40;;;10.90;99.90;;;;;;5004385;28;20443;-55
2021/12/25 12:33:03;;;;;;;11.50;6.80;;;10.90;99.90;;;;;;4998800;28;20805;-55
2021/12/25 12:35:36;;;;;;;10.90;5.55;;;10.90;99.90;;;;;;4999978;28;20554;-55
2021/12/25 12:38:43;;;;;;;8.15;4.80;;;10.70;99.90;;;;;;4998765;28;20491;-55
2021/12/25 12:41:24;;;;;;;8.60;4.90;;;10.60;99.90;;;;;;4994575;28;20419;-55
2021/12/25 12:43:58;;;;;;;9.25;4.75;;;10.60;99.90;;;;;;5000660;28;20844;-56
2021/12/25 12:46:45;;;;;;;9.07;5.45;;;10.60;99.90;;;;;;5003680;28;20482;-56
2021/12/25 12:49:11;;;;;;;12.20;5.90;;;10.60;99.90;;;;;;5003354;28;20425;-55
2021/12/25 12:51:37;;;;;;;9.93;5.68;;;10.50;99.90;;;;;;5008027;28;20396;-55
2021/12/25 12:54:04;;;;;;;10.43;5.63;;;10.70;99.90;;;;;;5008940;28;20411;-55
2021/12/25 12:56:30;;;;;;;8.43;5.25;;;10.70;99.90;;;;;;5001095;28;20410;-55
2021/12/25 12:58:57;;;;;;;12.48;6.93;;;10.60;99.90;;;;;;5006482;28;20432;-56
2021/12/25 13:01:27;;;;;;;9.57;5.80;;;10.70;99.90;;;;;;5001278;28;20439;-56
2021/12/25 13:04:01;;;;;;;11.40;6.85;;;10.70;99.90;;;;;;5003211;28;20397;-55
2021/12/25 13:06:29;;;;;;;16.50;10.15;;;10.80;99.90;;;;;;5004412;28;20467;-54
2021/12/25 13:09:00;;;;;;;20.27;10.95;;;10.80;99.90;;;;;;5008120;28;20395;-56
2021/12/25 13:11:31;;;;;;;15.43;8.57;;;10.60;99.90;;;;;;4998745;28;20394;-56
2021/12/25 13:13:59;;;;;;;14.52;8.07;;;10.70;99.90;;;;;;5008602;28;20419;-56
2021/12/25 13:16:39;;;;;;;12.20;7.70;;;10.60;99.90;;;;;;5005357;28;20525;-56
2021/12/25 13:19:06;;;;;;;12.10;7.00;;;10.60;99.90;;;;;;4989842;28;20839;-56
2021/12/25 13:21:34;;;;;;;11.48;7.47;;;10.60;99.90;;;;;;5001180;28;20432;-55
2021/12/25 13:24:07;;;;;;;11.10;7.10;;;10.60;99.90;;;;;;5005226;28;20854;-55
2021/12/25 13:26:38;;;;;;;10.77;6.00;;;10.70;99.90;;;;;;4999534;28;20476;-56
2021/12/25 13:29:07;;;;;;;9.82;5.60;;;10.80;99.90;;;;;;4998924;28;20938;-56
2021/12/25 13:31:35;;;;;;;10.67;5.40;;;10.70;99.90;;;;;;4997159;28;20445;-56
2021/12/25 13:34:11;;;;;;;9.55;5.80;;;10.70;99.90;;;;;;5004620;28;20935;-56
2021/12/25 13:36:38;;;;;;;9.18;5.50;;;10.70;99.90;;;;;;5006828;28;21111;-56
2021/12/25 13:39:09;;;;;;;9.77;5.80;;;10.70;99.90;;;;;;5008013;28;20684;-56
2021/12/25 13:41:41;;;;;;;11.40;7.40;;;10.70;99.90;;;;;;5009190;28;21322;-56
2021/12/25 13:44:15;;;;;;;12.37;7.07;;;10.60;99.90;;;;;;5008086;28;20396;-56
2021/12/25 13:46:47;;;;;;;13.45;7.70;;;10.50;99.90;;;;;;5009030;28;20910;-55
2021/12/25 13:49:42;;;;;;;12.23;8.30;;;10.20;99.90;;;;;;5001544;28;20445;-55
2021/12/25 13:52:07;;;;;;;12.75;7.80;;;10.20;99.90;;;;;;5005230;28;20901;-55
2021/12/25 13:54:35;;;;;;;11.57;7.50;;;9.80;99.90;;;;;;4998789;28;20427;-55
2021/12/25 13:57:01;;;;;;;13.02;7.05;;;9.60;99.90;;;;;;5005417;28;20501;-55
2021/12/25 13:59:27;;;;;;;14.30;8.50;;;9.60;99.90;;;;;;5005566;28;20491;-56
2021/12/25 14:02:14;;;;;;;13.90;9.60;;;9.60;99.90;;;;;;4999037;28;20416;-56